AirNav   Textron
 
 403 users online  

05LA Greg's Flying Service Airport
Baskin, Louisiana, USA

GOING TO BASKIN?


FAA INFORMATION EFFECTIVE 20 JULY 2017

Location

FAA Identifier: 05LA
Lat/Long: 32-15-55.5150N / 091-41-52.5150W
32-15.925250N / 091-41.875250W
32.2654208 / -91.6979208
(estimated)
Elevation: 77 ft. / 23 m (estimated)
Variation: 03E (1990)
From city: 2 miles E of BASKIN, LA
Time zone: UTC -5 (UTC -6 during Standard Time)
Zip code: 71295

Airport Operations

Airport use: Private use. Permission required prior to landing
Activation date: 11/1992
Control tower: no
ARTCC: HOUSTON CENTER
FSS: DE RIDDER FLIGHT SERVICE STATION
Attendance: UNATNDD
Segmented circle: no

Nearby radio navigation aids

VOR radial/distance  VOR name  Freq  Var
MLUr128/22.8MONROE VORTAC117.2003E

 
NDB name  Hdg/Dist  Freq  Var  ID
BASTROP159/30.832903EBQP -... --.- .--.
TALLULAH270/34.134402ETKH - -.- ....

Airport Services

Runway Information

Runway 18/36

Dimensions: 2200 x 70 ft. / 671 x 21 m
Surface: turf
RUNWAY 18  RUNWAY 36
Latitude: 32-16.106667N32-15.743833N
Longitude: 091-41.876667W091-41.873833W
Elevation: 77.0 ft.75.0 ft.
Traffic pattern: leftright
Runway heading: 177 magnetic, 180 true357 magnetic, 360 true
Obstructions: 60 ft. trees, 100 ft. from runway60 ft. trees, 100 ft. from runway

Airport Ownership and Management from official FAA records

Ownership: Privately-owned
Owner: GREGORY W. TAYLOR
540 BLOUNT ROAD
WINNSBORO, LA 71295
Phone (318) 439-8017

Additional Remarks

100 FT TREES NORTH END OF RWY.

Instrument Procedures

There are no published instrument procedures at 05LA.

Some nearby airports with instrument procedures:

M79 - John H Hooks Jr Memorial Airport (14 nm N)
KMLU - Monroe Regional Airport (23 nm NW)
KBQP - Morehouse Memorial Airport (31 nm N)
KTVR - Vicksburg Tallulah Regional Airport (34 nm E)
KVKS - Vicksburg Municipal Airport (39 nm E)
 
Loc | Ops | Rwys | IFR | FBO | Links
Com | Nav | Svcs | Stats | Notes


 
Area around 05LA (Greg's Flying Service Airport)
 
Road maps at: MapQuest Bing Google
 
Aerial photo
No photo
 
Sectional chart

 
Airport distance calculator
Flying to Greg's Flying Service Airport? Find the distance to fly.

From to 05LA

Sunrise and sunset
Times for 26-Jul-2017
 Local
(UTC-5)
 Zulu
(UTC)
Morning civil twilight05:5110:51
Sunrise06:1911:19
Sunset20:0801:08
Evening civil twilight20:3501:35

Current date and time
Zulu (UTC)  26-Jul-2017 06:01:12
Local (UTC-5)  26-Jul-2017 01:01:12
 
METAR
KMLU 
23nm NW 
260553Z AUTO 21003KT 10SM CLR 25/22 A3010 RMK AO2 SLP191 T02500222 10322 20239 403500239 53004 $
KBQP 
31nm N 
260555Z AUTO 00000KT 10SM CLR 23/23 A3010 RMK AO2 T02310227 10325 20228 403470228
KTVR 
34nm E 
260553Z AUTO 18003KT 10SM CLR 23/22 A3010 RMK AO2 SLP199 60001 T02280222 10256 20222 403110222 53003
KHEZ 
44nm SE 
260556Z AUTO 00000KT 10SM CLR 24/23 A3013 RMK AO2 SLP202 T02440233 10300 20239 51007
TAF
KMLU 
23nm NW 
260529Z 2606/2706 00000KT P6SM SKC FM261600 25007KT P6SM FEW035 SCT250 FM262000 21006KT P6SM FEW035 SCT250 FM270000 VRB03KT P6SM FEW250
NOTAMs
Click for the latest NOTAMs
NOTAMs are issued by the DoD/FAA and will open in a separate window not controlled by AirNav.

 

 
 

Would you like to see your business listed on this page?

 If your business provides an interesting product or service to pilots, flight crews, aircraft, or users of the Greg's Flying Service Airport, you should consider listing it here.  To start the listing process, click on the button below
 
Add a business
 

Other Pages about Greg's Flying Service Airport

Update a link
 
Copyright © AirNav, LLC. All rights reserved. Privacy Policy  Contact